createdAt,value
2022-11-16T00:03:32.737Z,0.00
2022-11-16T00:09:33.130Z,0.45
2022-11-16T00:15:33.566Z,0.45
2022-11-16T00:21:34.013Z,0.45
2022-11-16T00:27:34.535Z,0.45
2022-11-16T00:33:34.942Z,0.45
2022-11-16T00:39:35.281Z,0.90
2022-11-16T00:45:38.124Z,0.90
2022-11-16T00:51:38.770Z,1.35
2022-11-16T00:57:41.930Z,1.35
2022-11-16T01:03:42.383Z,1.35
2022-11-16T01:09:42.784Z,0.90
2022-11-16T01:15:43.251Z,1.35
2022-11-16T01:21:43.672Z,1.35
2022-11-16T01:27:44.043Z,1.35
2022-11-16T01:33:44.406Z,1.35
2022-11-16T01:39:44.831Z,0.90
2022-11-16T01:45:45.246Z,1.35
2022-11-16T01:51:45.644Z,0.90
2022-11-16T01:57:46.115Z,0.90
2022-11-16T02:03:46.543Z,0.90
2022-11-16T02:09:46.908Z,0.90
2022-11-16T02:15:47.336Z,0.45
2022-11-16T02:21:48.159Z,0.45
2022-11-16T02:27:48.709Z,0.90
2022-11-16T02:33:49.100Z,0.90
2022-11-16T02:39:49.414Z,1.35
2022-11-16T02:45:49.799Z,0.90
2022-11-16T02:51:50.135Z,1.35
2022-11-16T02:57:50.491Z,1.80
2022-11-16T03:03:50.817Z,2.25
2022-11-16T03:09:51.206Z,2.70
2022-11-16T03:15:51.518Z,2.70
2022-11-16T03:21:53.030Z,3.15
2022-11-16T03:27:53.451Z,2.70
2022-11-16T03:33:53.835Z,2.70
2022-11-16T03:39:54.340Z,2.25
2022-11-16T03:45:54.757Z,2.25
2022-11-16T03:51:55.108Z,1.80
2022-11-16T03:57:55.496Z,1.35
2022-11-16T04:03:55.881Z,0.90
2022-11-16T04:09:56.386Z,0.45
2022-11-16T04:15:56.737Z,0.45
2022-11-16T04:21:57.154Z,0.00
2022-11-16T04:27:57.467Z,0.45
2022-11-16T04:33:57.772Z,0.45
2022-11-16T04:39:58.156Z,0.45
2022-11-16T04:46:02.320Z,0.45
2022-11-16T04:52:03.632Z,0.90
2022-11-16T04:58:04.160Z,0.90
2022-11-16T05:04:04.541Z,0.90
2022-11-16T05:10:20.394Z,0.90
2022-11-16T05:16:20.703Z,0.90
2022-11-16T05:22:21.126Z,0.90
2022-11-16T05:28:21.571Z,0.45
2022-11-16T05:34:21.980Z,0.45
2022-11-16T05:40:22.377Z,0.45
2022-11-16T05:46:22.718Z,0.45
2022-11-16T05:52:23.105Z,0.00
2022-11-16T05:58:23.598Z,0.00
2022-11-16T06:04:23.994Z,0.00
2022-11-16T06:10:24.359Z,0.45
2022-11-16T06:16:24.759Z,0.45
2022-11-16T06:22:25.395Z,0.90
2022-11-16T06:28:25.801Z,0.90
2022-11-16T06:34:26.179Z,0.90
2022-11-16T06:40:26.486Z,0.90
2022-11-16T06:46:26.890Z,0.90
2022-11-16T06:52:27.412Z,0.90
2022-11-16T06:58:27.765Z,0.90
2022-11-16T07:04:28.321Z,0.90
2022-11-16T07:10:29.017Z,0.45
2022-11-16T07:16:29.447Z,0.45
2022-11-16T07:22:29.829Z,0.00
2022-11-16T07:28:30.234Z,0.00
2022-11-16T07:34:30.727Z,0.00
2022-11-16T07:40:31.153Z,0.00
2022-11-16T07:46:46.470Z,0.00
2022-11-16T07:52:48.034Z,0.00
2022-11-16T07:58:48.451Z,0.00
2022-11-16T08:04:48.824Z,0.00
2022-11-16T08:10:54.221Z,0.00
2022-11-16T08:16:54.641Z,0.00
2022-11-16T08:22:54.992Z,0.00
2022-11-16T08:28:55.370Z,0.00
2022-11-16T08:34:55.708Z,0.00
2022-11-16T08:40:56.158Z,0.00
2022-11-16T08:46:56.602Z,0.00
2022-11-16T08:52:57.019Z,0.00
2022-11-16T08:58:59.181Z,0.00
2022-11-16T09:04:59.807Z,0.00
2022-11-16T09:11:00.160Z,0.00
2022-11-16T09:17:00.606Z,0.00
2022-11-16T09:23:01.040Z,0.00
2022-11-16T09:29:01.477Z,0.00
2022-11-16T09:35:02.192Z,0.00
2022-11-16T09:41:02.564Z,0.00
2022-11-16T09:47:02.956Z,0.00
2022-11-16T09:53:03.383Z,0.00
2022-11-16T09:59:03.677Z,0.00
2022-11-16T10:05:04.034Z,0.00
2022-11-16T10:11:04.409Z,0.00
2022-11-16T10:17:04.798Z,0.00
2022-11-16T10:23:05.174Z,0.00
2022-11-16T10:29:05.464Z,0.00
2022-11-16T10:35:05.861Z,0.00
2022-11-16T10:41:06.164Z,0.00
2022-11-16T10:47:06.539Z,0.00
2022-11-16T10:53:06.833Z,0.00
2022-11-16T10:59:07.194Z,0.00
2022-11-16T11:05:07.578Z,0.00
2022-11-16T11:11:07.996Z,0.00
2022-11-16T11:17:08.259Z,0.00
2022-11-16T11:23:08.535Z,0.00
2022-11-16T11:29:08.914Z,0.00
2022-11-16T11:35:09.246Z,0.00
2022-11-16T11:41:09.668Z,0.00
2022-11-16T11:53:40.437Z,0.00
2022-11-16T11:59:40.739Z,0.00
2022-11-16T12:05:41.105Z,0.00
2022-11-16T12:11:41.544Z,0.00
2022-11-16T12:17:41.918Z,0.00
2022-11-16T12:23:42.298Z,0.00
2022-11-16T12:29:42.725Z,0.00
2022-11-16T12:35:43.113Z,0.00
2022-11-16T12:41:43.488Z,0.00
2022-11-16T12:47:43.822Z,0.00
2022-11-16T12:53:44.153Z,0.00
2022-11-16T12:59:44.531Z,0.00
2022-11-16T13:05:44.889Z,0.00
2022-11-16T13:11:45.341Z,0.00
2022-11-16T13:17:45.748Z,0.00
2022-11-16T13:23:46.212Z,0.00
2022-11-16T13:29:46.591Z,0.00
2022-11-16T13:35:46.994Z,0.00
2022-11-16T13:41:47.314Z,0.00
2022-11-16T13:47:47.627Z,0.00
2022-11-16T13:54:43.136Z,0.00
2022-11-16T14:00:45.508Z,0.00
2022-11-16T14:06:45.942Z,0.00
2022-11-16T14:12:46.349Z,0.00
2022-11-16T14:18:54.189Z,0.00
2022-11-16T14:24:54.724Z,0.00
2022-11-16T14:30:55.054Z,0.00
2022-11-16T14:37:02.552Z,0.00
2022-11-16T14:43:16.400Z,0.00
2022-11-16T14:49:26.312Z,0.00
2022-11-16T14:55:26.717Z,0.00
2022-11-16T15:01:27.072Z,0.00
2022-11-16T15:07:27.498Z,0.00
2022-11-16T15:13:27.995Z,0.00
2022-11-16T15:20:33.423Z,0.00
2022-11-16T15:26:33.848Z,0.00
2022-11-16T15:32:34.227Z,0.00
2022-11-16T15:38:34.618Z,0.00
2022-11-16T15:44:35.053Z,0.00
2022-11-16T15:50:35.486Z,0.00
2022-11-16T15:56:36.063Z,0.00
2022-11-16T16:02:36.704Z,0.00
2022-11-16T16:08:37.254Z,0.00
2022-11-16T16:14:37.638Z,0.00
2022-11-16T16:20:38.044Z,0.00
2022-11-16T16:26:38.894Z,0.00
2022-11-16T16:32:39.256Z,0.00
2022-11-16T16:38:39.675Z,0.00
2022-11-16T16:44:40.154Z,0.00
2022-11-16T16:50:40.519Z,0.00
2022-11-16T16:56:40.898Z,0.00
2022-11-16T17:02:41.322Z,0.00
2022-11-16T17:08:41.735Z,0.00
2022-11-16T17:14:42.104Z,0.00
2022-11-16T17:20:45.328Z,0.00
2022-11-16T17:26:46.355Z,0.00
2022-11-16T17:32:46.754Z,0.00
2022-11-16T17:38:47.038Z,0.00
2022-11-16T17:44:47.412Z,0.00
2022-11-16T17:50:47.795Z,0.00
2022-11-16T17:56:48.173Z,0.00
2022-11-16T18:02:48.583Z,0.00
2022-11-16T18:08:48.909Z,0.00
2022-11-16T18:15:13.441Z,0.00
2022-11-16T18:21:22.120Z,0.00
2022-11-16T18:27:22.547Z,0.00
2022-11-16T18:33:27.784Z,0.00
2022-11-16T18:39:30.704Z,0.00
2022-11-16T18:45:31.079Z,0.00
2022-11-16T18:51:31.653Z,0.00
2022-11-16T18:57:32.062Z,0.00
2022-11-16T19:03:32.647Z,0.00
2022-11-16T19:09:33.365Z,0.00
2022-11-16T19:15:33.759Z,0.00
2022-11-16T19:21:34.149Z,0.00
2022-11-16T19:27:34.568Z,0.00
2022-11-16T19:33:35.415Z,0.00
2022-11-16T19:39:36.111Z,0.00
2022-11-16T19:45:36.572Z,0.00
2022-11-16T19:51:36.967Z,0.00
2022-11-16T19:57:37.354Z,0.00
2022-11-16T20:03:38.269Z,0.00
2022-11-16T20:09:39.075Z,0.00
2022-11-16T20:15:39.412Z,0.00
2022-11-16T20:21:39.734Z,0.00
2022-11-16T20:27:40.042Z,0.00
2022-11-16T20:33:41.622Z,0.00
2022-11-16T20:39:42.051Z,0.00
2022-11-16T20:45:42.525Z,0.00
2022-11-16T20:51:42.911Z,0.00
2022-11-16T20:57:43.292Z,0.00
2022-11-16T21:03:43.650Z,0.00
2022-11-16T21:09:44.020Z,0.00
2022-11-16T21:15:44.446Z,0.00
2022-11-16T21:21:44.775Z,0.00
2022-11-16T21:27:45.179Z,0.00
2022-11-16T21:33:45.494Z,0.00
2022-11-16T21:39:50.894Z,0.00
2022-11-16T21:45:51.296Z,0.00
2022-11-16T21:51:51.625Z,0.00
2022-11-16T21:57:52.026Z,0.00
2022-11-16T22:03:52.408Z,0.00
2022-11-16T22:09:52.810Z,0.00
2022-11-16T22:15:53.184Z,0.00
2022-11-16T22:21:53.909Z,0.00
2022-11-16T22:34:06.277Z,0.00
2022-11-16T22:40:06.611Z,0.00
2022-11-16T22:46:06.991Z,0.00
2022-11-16T22:52:07.340Z,0.00
2022-11-16T22:58:07.690Z,0.00
2022-11-16T23:04:08.117Z,0.00
2022-11-16T23:10:08.587Z,0.00
2022-11-16T23:16:08.986Z,0.00
2022-11-16T23:22:10.564Z,0.00
2022-11-16T23:28:11.097Z,0.00
2022-11-16T23:34:11.589Z,0.00
2022-11-16T23:40:12.029Z,0.00
2022-11-16T23:46:12.433Z,0.00
2022-11-16T23:52:12.807Z,0.00
2022-11-16T23:58:13.120Z,0.00
